Nimba Airport

Jump to: basic info | weather | comments

Related pages: nearby airports | nearby navaids | notams | map

Basic information (top)

Codes: NIA GLNA
Location: lon 7.500000, lat -8.600000, elev 1,632 ft / 497 m msl
Status: small_airport
Scheduled airline service: no
Links: Wikipedia Mobile

Weather (top)

Current conditions for Man Airport 62nm (115km) ESE (rec'd 2013/11/21 04:00Z):

DIMN 210400Z NOL

Airport forecast for Roberts International Airport 130nm (240km) SW (rec'd 2014/04/23 06:54Z):

TAF TAF GLRB 230400Z 2306/2412 24010KT 9999 BKN018 
      BECMG 2307/2309 04005KT 8000 SCT014 BKN100 
      TEMPO 2310/2314 23012KT 9999 SCT022 
      BECMG 2315/2317 32008KT 8000 RA/TSRA

Latest comments (top)

No comments yet for Nimba Airport

More... (top)

See also NOTAMs and nearby airports and navaids, or visit the Nimba Airport page at the main OurAirports website..